createdAt,value
2023-01-19T00:00:48.394Z,80.17
2023-01-19T00:03:18.575Z,80.26
2023-01-19T00:05:47.657Z,80.00
2023-01-19T00:08:16.826Z,79.95
2023-01-19T00:10:48.313Z,80.05
2023-01-19T00:13:16.981Z,80.32
2023-01-19T00:15:45.073Z,79.99
2023-01-19T00:18:13.025Z,80.24
2023-01-19T00:20:42.322Z,80.38
2023-01-19T00:23:10.345Z,79.88
2023-01-19T00:25:42.365Z,79.39
2023-01-19T00:28:10.732Z,79.68
2023-01-19T00:30:39.610Z,79.67
2023-01-19T00:33:07.703Z,79.68
2023-01-19T00:35:35.843Z,80.01
2023-01-19T00:38:05.153Z,80.04
2023-01-19T00:40:33.366Z,79.83
2023-01-19T00:43:00.725Z,79.62
2023-01-19T00:45:29.151Z,80.21
2023-01-19T00:47:57.904Z,79.87
2023-01-19T00:50:26.918Z,79.91
2023-01-19T00:52:56.225Z,80.13
2023-01-19T00:55:25.601Z,80.07
2023-01-19T00:57:53.568Z,80.49
2023-01-19T01:00:22.828Z,80.54
2023-01-19T01:02:53.102Z,80.75
2023-01-19T01:05:21.909Z,80.57
2023-01-19T01:07:50.594Z,80.31
2023-01-19T01:10:21.854Z,80.67
2023-01-19T01:12:55.520Z,80.41
2023-01-19T01:15:29.940Z,80.74
2023-01-19T01:17:58.009Z,80.85
2023-01-19T01:20:30.482Z,80.92
2023-01-19T01:22:59.179Z,81.12
2023-01-19T01:25:30.972Z,81.06
2023-01-19T01:28:00.232Z,81.11
2023-01-19T01:30:28.090Z,80.79
2023-01-19T01:32:56.059Z,80.86
2023-01-19T01:35:24.025Z,80.95
2023-01-19T01:37:51.989Z,81.23
2023-01-19T01:40:21.159Z,81.08
2023-01-19T01:42:49.297Z,80.67
2023-01-19T01:45:38.510Z,80.99
2023-01-19T01:48:11.821Z,80.63
2023-01-19T01:51:06.811Z,80.45
2023-01-19T01:53:36.823Z,80.72
2023-01-19T01:56:09.918Z,80.49
2023-01-19T01:58:39.642Z,80.34
2023-01-19T02:01:26.590Z,80.46
2023-01-19T02:03:58.454Z,80.44
2023-01-19T02:06:27.417Z,80.28
2023-01-19T02:09:18.080Z,79.79
2023-01-19T02:12:03.648Z,79.64
2023-01-19T02:14:31.561Z,79.38
2023-01-19T02:17:01.190Z,79.58
2023-01-19T02:19:35.026Z,79.74
2023-01-19T02:22:09.112Z,79.99
2023-01-19T02:24:39.628Z,80.00
2023-01-19T02:27:08.958Z,79.51
2023-01-19T02:29:37.232Z,79.90
2023-01-19T02:32:05.805Z,79.74
2023-01-19T02:34:33.993Z,79.58
2023-01-19T02:37:07.000Z,79.87
2023-01-19T02:39:40.141Z,80.07
2023-01-19T02:42:12.630Z,80.04
2023-01-19T02:44:44.425Z,80.38
2023-01-19T02:47:13.413Z,80.40
2023-01-19T02:49:41.630Z,80.34
2023-01-19T02:52:15.918Z,80.33
2023-01-19T02:54:59.558Z,80.28
2023-01-19T02:57:50.539Z,80.70
2023-01-19T03:00:34.957Z,80.97
2023-01-19T03:03:19.742Z,80.62
2023-01-19T03:05:58.382Z,80.14
2023-01-19T03:08:43.341Z,80.73
2023-01-19T03:11:16.284Z,81.12
2023-01-19T03:13:48.808Z,80.83
2023-01-19T03:16:22.501Z,80.88
2023-01-19T03:18:54.875Z,80.36
2023-01-19T03:21:27.084Z,79.75
2023-01-19T03:23:58.174Z,79.92
2023-01-19T03:26:31.530Z,79.62
2023-01-19T03:29:03.336Z,79.37
2023-01-19T03:31:34.524Z,79.35
2023-01-19T03:34:07.462Z,79.08
2023-01-19T03:36:38.804Z,79.17
2023-01-19T03:39:09.403Z,78.89
2023-01-19T03:41:41.433Z,79.13
2023-01-19T03:44:12.281Z,79.32
2023-01-19T03:46:41.126Z,79.29
2023-01-19T03:49:10.573Z,79.54
2023-01-19T03:51:39.868Z,79.59
2023-01-19T03:54:08.612Z,79.53
2023-01-19T03:56:38.034Z,79.26
2023-01-19T03:59:07.523Z,78.92
2023-01-19T04:01:35.690Z,78.79
2023-01-19T04:04:03.840Z,78.49
2023-01-19T04:06:32.161Z,78.68
2023-01-19T04:09:00.055Z,78.51
2023-01-19T04:11:28.409Z,78.25
2023-01-19T04:13:57.685Z,78.39
2023-01-19T04:16:25.668Z,77.90
2023-01-19T04:18:53.673Z,77.96
2023-01-19T04:21:21.632Z,77.85
2023-01-19T04:23:50.794Z,77.81
2023-01-19T04:26:18.970Z,78.01
2023-01-19T04:28:47.039Z,77.80
2023-01-19T04:31:16.718Z,77.22
2023-01-19T04:33:44.706Z,77.23
2023-01-19T04:36:12.606Z,77.18
2023-01-19T04:38:40.704Z,77.09
2023-01-19T04:41:08.621Z,77.14
2023-01-19T04:43:36.567Z,76.97
2023-01-19T04:46:04.758Z,76.99
2023-01-19T04:48:34.084Z,76.61
2023-01-19T04:51:02.087Z,76.51
2023-01-19T04:53:30.240Z,76.39
2023-01-19T04:56:00.095Z,76.06
2023-01-19T04:58:28.191Z,76.16
2023-01-19T05:00:56.344Z,76.12
2023-01-19T05:03:25.794Z,76.38
2023-01-19T05:05:55.882Z,76.29
2023-01-19T05:08:24.538Z,76.02
2023-01-19T05:10:52.657Z,75.70
2023-01-19T05:13:20.590Z,75.87
2023-01-19T05:15:48.598Z,75.74
2023-01-19T05:18:16.621Z,75.79
2023-01-19T05:20:44.644Z,75.67
2023-01-19T05:23:13.918Z,75.68
2023-01-19T05:25:43.642Z,75.55
2023-01-19T05:28:11.920Z,75.81
2023-01-19T05:30:40.982Z,75.90
2023-01-19T05:33:09.117Z,76.15
2023-01-19T05:35:37.064Z,75.42
2023-01-19T05:38:05.235Z,75.66
2023-01-19T05:40:35.465Z,75.65
2023-01-19T05:43:05.426Z,75.66
2023-01-19T05:45:34.500Z,75.63
2023-01-19T05:48:02.723Z,75.79
2023-01-19T05:50:30.887Z,76.20
2023-01-19T05:53:00.229Z,75.77
2023-01-19T05:55:29.087Z,75.59
2023-01-19T05:57:58.499Z,75.00
2023-01-19T06:00:27.582Z,74.91
2023-01-19T06:02:55.559Z,74.46
2023-01-19T06:05:23.868Z,73.83
2023-01-19T06:07:52.638Z,73.77
2023-01-19T06:10:21.450Z,73.90
2023-01-19T06:12:50.116Z,73.35
2023-01-19T06:15:20.657Z,72.98
2023-01-19T06:17:48.666Z,72.04
2023-01-19T06:20:17.388Z,71.03
2023-01-19T06:22:45.703Z,70.84
2023-01-19T06:25:14.243Z,70.76
2023-01-19T06:27:45.433Z,70.40
2023-01-19T06:30:14.278Z,70.28
2023-01-19T06:32:43.682Z,69.67
2023-01-19T06:35:12.414Z,68.72
2023-01-19T06:37:41.091Z,68.11
2023-01-19T06:40:13.638Z,67.59
2023-01-19T06:42:42.721Z,67.92
2023-01-19T06:45:12.249Z,68.46
2023-01-19T06:47:40.158Z,68.75
2023-01-19T06:50:11.039Z,68.18
2023-01-19T06:52:42.331Z,68.07
2023-01-19T06:55:12.238Z,67.87
2023-01-19T06:57:40.775Z,68.28
2023-01-19T07:00:11.836Z,68.64
2023-01-19T07:02:43.422Z,69.47
2023-01-19T07:05:14.547Z,70.07
2023-01-19T07:07:43.235Z,70.15
2023-01-19T07:10:13.215Z,70.50
2023-01-19T07:12:41.487Z,70.97
2023-01-19T07:15:12.026Z,71.52
2023-01-19T07:17:41.727Z,71.13
2023-01-19T07:20:13.190Z,70.91
2023-01-19T07:22:43.454Z,71.52
2023-01-19T07:25:11.829Z,71.27
2023-01-19T07:27:40.583Z,71.46
2023-01-19T07:30:10.028Z,72.17
2023-01-19T07:32:37.967Z,72.41
2023-01-19T07:35:06.712Z,73.05
2023-01-19T07:37:36.134Z,72.91
2023-01-19T07:40:05.477Z,73.30
2023-01-19T07:42:33.712Z,73.18
2023-01-19T07:45:01.886Z,73.65
2023-01-19T07:47:30.078Z,74.33
2023-01-19T07:49:58.013Z,74.74
2023-01-19T07:52:25.996Z,74.65
2023-01-19T07:54:55.592Z,74.75
2023-01-19T07:57:24.221Z,74.72
2023-01-19T07:59:52.231Z,74.38
2023-01-19T08:02:20.384Z,73.45
2023-01-19T08:04:49.282Z,72.91
2023-01-19T08:07:17.311Z,71.89
2023-01-19T08:09:45.513Z,71.79
2023-01-19T08:12:15.039Z,71.34
2023-01-19T08:14:43.094Z,70.76
2023-01-19T08:17:13.851Z,70.61
2023-01-19T08:19:43.280Z,70.00
2023-01-19T08:22:11.938Z,69.36
2023-01-19T08:24:40.419Z,69.14
2023-01-19T08:27:09.888Z,69.15
2023-01-19T08:29:39.368Z,68.76
2023-01-19T08:32:07.503Z,68.46
2023-01-19T08:34:35.606Z,69.14
2023-01-19T08:37:03.843Z,68.73
2023-01-19T08:39:31.819Z,68.32
2023-01-19T08:42:00.813Z,68.02
2023-01-19T08:44:29.214Z,67.85
2023-01-19T08:46:58.612Z,67.60
2023-01-19T08:49:26.672Z,67.20
2023-01-19T08:51:54.817Z,67.42
2023-01-19T08:54:23.212Z,67.90
2023-01-19T08:56:51.159Z,68.18
2023-01-19T08:59:19.198Z,68.01
2023-01-19T09:01:47.628Z,68.60
2023-01-19T09:04:17.075Z,69.22
2023-01-19T09:06:45.143Z,68.58
2023-01-19T09:09:13.854Z,68.58
2023-01-19T09:11:42.535Z,67.95
2023-01-19T09:14:11.146Z,68.40
2023-01-19T09:16:39.207Z,68.30
2023-01-19T09:19:09.169Z,68.01
2023-01-19T09:21:38.891Z,67.61
2023-01-19T09:24:07.359Z,67.68
2023-01-19T09:26:36.566Z,67.28
2023-01-19T09:29:04.754Z,66.99
2023-01-19T09:31:32.949Z,66.80
2023-01-19T09:34:01.249Z,66.01
2023-01-19T09:36:30.154Z,66.13
2023-01-19T09:39:00.011Z,66.22
2023-01-19T09:41:28.221Z,66.09
2023-01-19T09:44:00.688Z,66.04
2023-01-19T09:46:34.480Z,65.62
2023-01-19T09:49:06.649Z,65.33
2023-01-19T09:51:37.963Z,65.00
2023-01-19T09:54:13.330Z,65.03
2023-01-19T09:56:41.696Z,64.46
2023-01-19T09:59:23.340Z,65.43
2023-01-19T10:02:16.215Z,65.33
2023-01-19T10:04:50.124Z,66.03
2023-01-19T10:07:30.632Z,65.93
2023-01-19T10:10:24.693Z,66.21
2023-01-19T10:13:06.326Z,66.48
2023-01-19T10:15:45.947Z,66.24
2023-01-19T10:18:20.134Z,66.26
2023-01-19T10:20:51.801Z,66.90
2023-01-19T10:23:38.187Z,66.64
2023-01-19T10:26:14.207Z,66.56
2023-01-19T10:28:42.911Z,66.11
2023-01-19T10:31:12.725Z,65.85
2023-01-19T10:33:40.876Z,65.96
2023-01-19T10:36:18.998Z,65.37
2023-01-19T10:38:48.032Z,65.43
2023-01-19T10:41:20.398Z,65.42
2023-01-19T10:43:51.100Z,65.17
2023-01-19T10:46:23.498Z,64.86
2023-01-19T10:48:53.530Z,64.60
2023-01-19T10:51:23.551Z,65.16
2023-01-19T10:53:58.295Z,65.03
2023-01-19T10:56:32.134Z,64.65
2023-01-19T10:59:05.385Z,64.81
2023-01-19T11:01:37.009Z,65.03
2023-01-19T11:04:23.052Z,64.42
2023-01-19T11:06:51.070Z,64.79
2023-01-19T11:09:20.700Z,64.00
2023-01-19T11:11:52.958Z,63.52
2023-01-19T11:14:23.521Z,63.90
2023-01-19T11:16:56.560Z,63.55
2023-01-19T11:19:30.692Z,63.20
2023-01-19T11:22:21.842Z,62.20
2023-01-19T11:24:52.144Z,61.98
2023-01-19T11:27:22.475Z,61.75
2023-01-19T11:29:55.149Z,61.93
2023-01-19T11:32:26.212Z,62.01
2023-01-19T11:34:54.438Z,61.84
2023-01-19T11:37:34.559Z,62.47
2023-01-19T11:40:07.176Z,62.41
2023-01-19T11:42:37.607Z,61.68
2023-01-19T11:45:13.861Z,60.55
2023-01-19T11:47:46.487Z,60.51
2023-01-19T11:50:23.116Z,61.42
2023-01-19T11:52:54.596Z,61.59
2023-01-19T11:55:32.424Z,61.81
2023-01-19T11:58:04.824Z,60.80
2023-01-19T12:00:38.279Z,59.91
2023-01-19T12:03:14.517Z,58.55
2023-01-19T12:05:48.929Z,58.23
2023-01-19T12:08:22.247Z,58.78
2023-01-19T12:10:53.090Z,59.56
2023-01-19T12:13:25.266Z,60.25
2023-01-19T12:15:58.540Z,59.92
2023-01-19T12:18:30.909Z,59.89
2023-01-19T12:21:01.899Z,59.20
2023-01-19T12:23:56.967Z,59.30
2023-01-19T12:26:33.947Z,58.68
2023-01-19T12:29:12.194Z,58.85
2023-01-19T12:31:42.838Z,59.24
2023-01-19T12:34:39.976Z,59.12
2023-01-19T12:37:28.882Z,58.82
2023-01-19T12:39:59.184Z,58.57
2023-01-19T12:42:28.226Z,58.29
2023-01-19T12:45:09.285Z,58.01
2023-01-19T12:47:38.375Z,57.66
2023-01-19T12:50:13.527Z,57.82
2023-01-19T12:52:49.450Z,57.03
2023-01-19T12:55:24.383Z,56.89
2023-01-19T12:58:02.053Z,56.23
2023-01-19T13:00:34.937Z,54.99
2023-01-19T13:03:05.857Z,54.47
2023-01-19T13:05:52.433Z,54.71
2023-01-19T13:08:26.145Z,55.00
2023-01-19T13:11:14.547Z,56.12
2023-01-19T13:13:46.400Z,56.22
2023-01-19T13:16:53.629Z,56.73
2023-01-19T13:19:31.034Z,56.87
2023-01-19T13:21:59.657Z,57.49
2023-01-19T13:25:13.485Z,56.61
2023-01-19T13:27:48.006Z,56.05
2023-01-19T13:30:20.962Z,55.92
2023-01-19T13:32:50.906Z,56.28
2023-01-19T13:35:22.895Z,55.85
2023-01-19T13:37:52.075Z,55.95
2023-01-19T13:40:25.947Z,56.51
2023-01-19T13:42:57.096Z,55.66
2023-01-19T13:45:40.132Z,55.71
2023-01-19T13:48:17.894Z,56.20
2023-01-19T13:50:59.101Z,56.82
2023-01-19T13:53:27.421Z,56.78
2023-01-19T13:56:20.495Z,57.43
2023-01-19T13:59:05.824Z,57.14
2023-01-19T14:01:34.432Z,57.19
2023-01-19T14:04:04.536Z,57.53
2023-01-19T14:06:36.895Z,57.86
2023-01-19T14:09:20.350Z,57.75
2023-01-19T14:12:05.036Z,58.24
2023-01-19T14:14:33.628Z,58.25
2023-01-19T14:17:01.933Z,58.76
2023-01-19T14:19:47.492Z,58.92
2023-01-19T14:22:15.943Z,59.49
2023-01-19T14:24:44.219Z,59.62
2023-01-19T14:27:20.351Z,60.14
2023-01-19T14:29:50.701Z,60.32
2023-01-19T14:32:20.768Z,59.70
2023-01-19T14:34:51.870Z,59.02
2023-01-19T14:37:23.055Z,58.41
2023-01-19T14:39:56.102Z,56.74
2023-01-19T14:42:29.508Z,56.68
2023-01-19T14:45:01.116Z,56.22
2023-01-19T14:47:35.551Z,56.00
2023-01-19T14:50:12.354Z,55.92
2023-01-19T14:52:43.149Z,55.84
2023-01-19T14:55:22.173Z,56.53
2023-01-19T14:57:50.335Z,55.85
2023-01-19T15:00:21.361Z,55.84
2023-01-19T15:02:49.996Z,55.95
2023-01-19T15:05:20.729Z,56.03
2023-01-19T15:07:49.181Z,57.05
2023-01-19T15:10:22.606Z,55.69
2023-01-19T15:12:50.832Z,55.86
2023-01-19T15:15:23.343Z,55.68
2023-01-19T15:17:56.419Z,55.81
2023-01-19T15:20:26.540Z,55.99
2023-01-19T15:22:54.667Z,56.46
2023-01-19T15:25:26.368Z,56.18
2023-01-19T15:27:58.020Z,56.80
2023-01-19T15:30:29.676Z,56.44
2023-01-19T15:32:58.930Z,56.82
2023-01-19T15:35:28.528Z,56.99
2023-01-19T15:37:56.558Z,57.34
2023-01-19T15:40:24.772Z,57.54
2023-01-19T15:42:52.917Z,58.03
2023-01-19T15:45:39.962Z,57.75
2023-01-19T15:48:10.349Z,57.88
2023-01-19T15:50:43.753Z,58.15
2023-01-19T15:53:14.898Z,57.80
2023-01-19T15:55:43.094Z,57.58
2023-01-19T15:58:13.876Z,57.38
2023-01-19T16:00:43.396Z,57.71
2023-01-19T16:03:12.256Z,58.07
2023-01-19T16:05:43.167Z,57.86
2023-01-19T16:08:12.445Z,58.56
2023-01-19T16:10:41.670Z,58.48
2023-01-19T16:13:10.723Z,58.56
2023-01-19T16:15:42.196Z,58.52
2023-01-19T16:18:10.289Z,59.12
2023-01-19T16:20:38.575Z,59.33
2023-01-19T16:23:15.744Z,59.52
2023-01-19T16:25:44.810Z,59.68
2023-01-19T16:28:12.864Z,58.39
2023-01-19T16:30:41.107Z,58.51
2023-01-19T16:33:11.788Z,58.74
2023-01-19T16:35:40.981Z,59.11
2023-01-19T16:38:10.797Z,58.94
2023-01-19T16:40:41.044Z,58.90
2023-01-19T16:43:09.133Z,59.00
2023-01-19T16:45:56.388Z,58.72
2023-01-19T16:48:24.455Z,59.08
2023-01-19T16:51:09.987Z,59.31
2023-01-19T16:53:39.607Z,59.37
2023-01-19T16:56:08.344Z,59.23
2023-01-19T16:58:38.473Z,59.40
2023-01-19T17:01:09.669Z,59.37
2023-01-19T17:03:38.906Z,59.86
2023-01-19T17:06:10.678Z,59.65
2023-01-19T17:08:41.736Z,59.69
2023-01-19T17:11:11.722Z,58.73
2023-01-19T17:13:40.056Z,58.78
2023-01-19T17:16:08.769Z,58.43
2023-01-19T17:18:38.015Z,58.21
2023-01-19T17:21:08.899Z,58.52
2023-01-19T17:23:37.649Z,58.61
2023-01-19T17:26:07.200Z,58.63
2023-01-19T17:28:50.410Z,58.92
2023-01-19T17:31:20.929Z,59.19
2023-01-19T17:33:51.319Z,59.42
2023-01-19T17:36:22.460Z,59.17
2023-01-19T17:38:50.615Z,58.96
2023-01-19T17:41:21.768Z,58.93
2023-01-19T17:43:51.272Z,59.24
2023-01-19T17:46:20.329Z,59.32
2023-01-19T17:48:53.042Z,59.47
2023-01-19T17:51:23.197Z,59.07
2023-01-19T17:53:52.660Z,59.22
2023-01-19T17:56:26.291Z,58.85
2023-01-19T17:58:54.228Z,58.80
2023-01-19T18:01:24.414Z,58.51
2023-01-19T18:03:52.760Z,57.76
2023-01-19T18:06:21.958Z,58.02
2023-01-19T18:08:51.252Z,57.39
2023-01-19T18:11:22.189Z,57.65
2023-01-19T18:13:51.567Z,57.40
2023-01-19T18:16:22.316Z,57.49
2023-01-19T18:18:50.780Z,57.55
2023-01-19T18:21:20.447Z,57.90
2023-01-19T18:23:48.989Z,58.30
2023-01-19T18:26:19.317Z,57.96
2023-01-19T18:28:49.045Z,57.92
2023-01-19T18:31:18.725Z,58.05
2023-01-19T18:33:48.622Z,57.97
2023-01-19T18:36:17.048Z,56.93
2023-01-19T18:38:46.052Z,56.05
2023-01-19T18:41:16.767Z,56.23
2023-01-19T18:43:45.470Z,56.20
2023-01-19T18:46:15.729Z,56.25
2023-01-19T18:48:43.910Z,56.44
2023-01-19T18:51:14.296Z,56.72
2023-01-19T18:53:42.920Z,56.18
2023-01-19T18:56:12.844Z,56.36
2023-01-19T18:58:41.652Z,57.33
2023-01-19T19:01:22.942Z,57.21
2023-01-19T19:03:51.452Z,57.71
2023-01-19T19:06:20.868Z,57.92
2023-01-19T19:08:50.257Z,58.57
2023-01-19T19:11:18.767Z,58.92
2023-01-19T19:13:47.245Z,58.34
2023-01-19T19:16:15.387Z,58.49
2023-01-19T19:18:50.040Z,58.19
2023-01-19T19:21:19.601Z,58.30
2023-01-19T19:23:52.210Z,57.96
2023-01-19T19:26:20.713Z,58.28
2023-01-19T19:28:49.063Z,58.21
2023-01-19T19:31:20.606Z,58.48
2023-01-19T19:33:51.775Z,58.56
2023-01-19T19:36:21.176Z,58.34
2023-01-19T19:38:49.597Z,58.38
2023-01-19T19:41:20.261Z,58.42
2023-01-19T19:43:48.453Z,58.45
2023-01-19T19:46:19.937Z,58.19
2023-01-19T19:48:48.170Z,58.61
2023-01-19T19:51:23.447Z,58.71
2023-01-19T19:53:52.802Z,58.35
2023-01-19T19:56:22.264Z,58.04
2023-01-19T19:58:50.973Z,58.56
2023-01-19T20:01:20.805Z,59.58
2023-01-19T20:03:49.805Z,59.67
2023-01-19T20:06:21.359Z,59.83
2023-01-19T20:08:49.564Z,59.71
2023-01-19T20:11:19.692Z,59.86
2023-01-19T20:13:48.722Z,60.33
2023-01-19T20:16:19.150Z,60.44
2023-01-19T20:18:51.086Z,61.95
2023-01-19T20:21:22.891Z,62.19
2023-01-19T20:23:53.020Z,62.29
2023-01-19T20:26:24.969Z,62.46
2023-01-19T20:28:53.719Z,63.10
2023-01-19T20:31:24.884Z,63.47
2023-01-19T20:33:54.471Z,63.56
2023-01-19T20:36:24.693Z,62.96
2023-01-19T20:38:53.718Z,62.77
2023-01-19T20:41:22.907Z,62.89
2023-01-19T20:43:51.505Z,62.44
2023-01-19T20:46:19.683Z,62.92
2023-01-19T20:48:53.090Z,63.37
2023-01-19T20:51:22.432Z,63.65
2023-01-19T20:53:52.147Z,63.83
2023-01-19T20:56:20.316Z,63.59
2023-01-19T20:58:48.343Z,63.52
2023-01-19T21:01:18.591Z,63.25
2023-01-19T21:03:47.417Z,63.86
2023-01-19T21:06:16.390Z,63.73
2023-01-19T21:08:45.261Z,63.87
2023-01-19T21:11:14.903Z,64.01
2023-01-19T21:13:43.131Z,64.26
2023-01-19T21:16:12.097Z,64.32
2023-01-19T21:18:40.810Z,64.64
2023-01-19T21:21:20.768Z,65.14
2023-01-19T21:23:52.427Z,64.63
2023-01-19T21:26:22.369Z,64.46
2023-01-19T21:28:51.236Z,64.71
2023-01-19T21:31:21.331Z,65.54
2023-01-19T21:33:53.514Z,66.25
2023-01-19T21:36:22.848Z,66.59
2023-01-19T21:38:52.512Z,66.65
2023-01-19T21:41:22.066Z,66.86
2023-01-19T21:43:50.347Z,66.83
2023-01-19T21:46:20.311Z,67.01
2023-01-19T21:48:49.122Z,66.80
2023-01-19T21:51:17.628Z,66.14
2023-01-19T21:53:46.752Z,66.18
2023-01-19T21:56:16.821Z,66.27
2023-01-19T21:58:48.123Z,66.79
2023-01-19T22:01:16.240Z,67.05
2023-01-19T22:03:44.770Z,67.33
2023-01-19T22:06:16.670Z,66.89
2023-01-19T22:08:47.051Z,66.74
2023-01-19T22:11:18.754Z,66.17
2023-01-19T22:13:49.309Z,66.11
2023-01-19T22:16:19.316Z,66.49
2023-01-19T22:18:51.857Z,66.90
2023-01-19T22:21:26.993Z,67.40
2023-01-19T22:23:57.167Z,68.24
2023-01-19T22:26:26.562Z,68.27
2023-01-19T22:29:00.979Z,68.41
2023-01-19T22:31:30.882Z,68.48
2023-01-19T22:33:59.471Z,68.66
2023-01-19T22:36:29.606Z,68.26
2023-01-19T22:39:00.063Z,67.45
2023-01-19T22:41:30.076Z,67.89
2023-01-19T22:44:01.147Z,68.41
2023-01-19T22:46:31.176Z,67.91
2023-01-19T22:48:59.565Z,67.69
2023-01-19T22:51:29.199Z,67.67
2023-01-19T22:53:57.455Z,67.90
2023-01-19T22:56:27.055Z,67.75
2023-01-19T22:58:55.867Z,68.32
2023-01-19T23:01:27.193Z,68.31
2023-01-19T23:03:56.574Z,68.10
2023-01-19T23:06:25.769Z,68.17
2023-01-19T23:08:56.611Z,68.23
2023-01-19T23:11:27.526Z,68.39
2023-01-19T23:14:05.061Z,68.58
2023-01-19T23:16:35.076Z,69.05
2023-01-19T23:19:03.809Z,68.60
2023-01-19T23:21:33.176Z,68.70
2023-01-19T23:24:03.579Z,68.66
2023-01-19T23:26:37.933Z,68.70
2023-01-19T23:29:08.751Z,68.97
2023-01-19T23:31:40.376Z,69.49
2023-01-19T23:34:10.885Z,70.14
2023-01-19T23:36:40.236Z,70.64
2023-01-19T23:39:13.029Z,70.60
2023-01-19T23:41:41.087Z,70.89
2023-01-19T23:44:11.800Z,71.26
2023-01-19T23:46:41.830Z,71.30
2023-01-19T23:49:10.479Z,71.29
2023-01-19T23:51:41.105Z,70.71
2023-01-19T23:54:12.461Z,70.67
2023-01-19T23:56:42.512Z,70.24
2023-01-19T23:59:12.204Z,69.99
